Time;durP1;ratioP1;P1;durP2;ratioP2;P2;SDS_P1;SDS_P2;PMS_P1;PMS_P2;Temp;Humidity;BMP_temperature;BMP_pressure;BME280_temperature;BME280_humidity;BME280_pressure;Samples;Min_cycle;Max_cycle;Signal;HPM_P1;HPM_P2
2022/04/09 00:01:34;;;;;;;1.20;0.90;;;3.50;98.00;;;;;;5091594;28;20501;-68
2022/04/09 00:04:01;;;;;;;1.10;1.00;;;3.50;98.00;;;;;;5091862;28;20451;-68
2022/04/09 00:06:29;;;;;;;1.20;1.00;;;3.40;98.00;;;;;;5095702;28;20572;-68
2022/04/09 00:08:57;;;;;;;1.10;0.90;;;3.30;98.00;;;;;;5095721;28;20538;-68
2022/04/09 00:11:24;;;;;;;1.10;0.90;;;3.10;98.00;;;;;;5095548;28;20494;-68
2022/04/09 00:13:52;;;;;;;1.10;0.90;;;3.00;98.00;;;;;;5095452;28;20854;-69
2022/04/09 00:16:19;;;;;;;1.10;1.00;;;2.90;98.00;;;;;;5095160;28;20534;-68
2022/04/09 00:18:46;;;;;;;1.10;1.00;;;2.80;98.00;;;;;;5095604;28;20910;-68
2022/04/09 00:21:13;;;;;;;1.10;0.90;;;2.80;98.00;;;;;;5095317;28;20444;-68
2022/04/09 00:23:40;;;;;;;1.10;1.00;;;2.90;98.00;;;;;;5095596;28;20487;-68
2022/04/09 00:26:08;;;;;;;1.20;1.00;;;2.80;98.00;;;;;;5095378;28;20495;-68
2022/04/09 00:28:36;;;;;;;1.10;0.97;;;2.80;98.00;;;;;;5095555;28;20480;-68
2022/04/09 00:31:04;;;;;;;1.10;1.00;;;2.70;98.00;;;;;;5094139;28;20528;-68
2022/04/09 00:33:31;;;;;;;1.10;0.90;;;2.80;98.00;;;;;;5095142;28;20575;-68
2022/04/09 00:35:58;;;;;;;1.10;0.90;;;2.60;98.00;;;;;;5095069;28;20491;-68
2022/04/09 00:38:26;;;;;;;1.10;1.00;;;2.50;98.00;;;;;;5095151;28;20487;-68
2022/04/09 00:40:53;;;;;;;1.10;0.90;;;2.40;98.00;;;;;;5094697;28;20444;-68
2022/04/09 00:43:21;;;;;;;1.10;1.00;;;2.50;98.00;;;;;;5094901;28;20494;-68
2022/04/09 00:45:49;;;;;;;1.10;1.00;;;2.60;98.00;;;;;;5094770;28;20485;-68
2022/04/09 00:48:17;;;;;;;1.10;1.00;;;2.70;98.00;;;;;;5094720;28;20461;-68
2022/04/09 00:50:44;;;;;;;1.10;1.00;;;2.60;98.00;;;;;;5094662;28;20452;-68
2022/04/09 00:53:12;;;;;;;1.10;0.90;;;2.60;98.00;;;;;;5094650;28;20548;-68
2022/04/09 00:58:26;;;;;;;1.17;1.10;;;2.50;98.00;;;;;;5094708;28;20442;-68
2022/04/09 01:00:55;;;;;;;1.10;1.00;;;2.50;98.00;;;;;;5094555;28;20459;-68
2022/04/09 01:03:22;;;;;;;1.10;0.90;;;2.60;98.00;;;;;;5094713;28;20504;-68
2022/04/09 01:05:49;;;;;;;1.10;0.90;;;2.50;98.00;;;;;;5094566;28;20935;-68
2022/04/09 01:08:17;;;;;;;1.10;0.90;;;2.50;98.00;;;;;;5094545;28;20962;-68
2022/04/09 01:10:46;;;;;;;1.10;0.90;;;2.50;98.00;;;;;;5094499;28;20486;-68
2022/04/09 01:13:14;;;;;;;1.10;0.93;;;2.60;98.00;;;;;;5094412;28;20513;-68
2022/04/09 01:15:42;;;;;;;1.10;0.90;;;2.60;98.00;;;;;;5093614;28;20448;-69
2022/04/09 01:18:10;;;;;;;1.10;1.10;;;2.70;98.00;;;;;;5094382;28;20499;-68
2022/04/09 01:20:37;;;;;;;1.10;0.93;;;2.70;98.00;;;;;;5094545;28;20795;-68
2022/04/09 01:23:05;;;;;;;1.10;0.90;;;2.80;98.00;;;;;;5093027;28;20487;-68
2022/04/09 01:25:32;;;;;;;1.10;0.90;;;2.90;98.00;;;;;;5092710;28;20459;-68
2022/04/09 01:28:00;;;;;;;1.10;1.00;;;3.00;98.00;;;;;;5093995;28;20488;-68
2022/04/09 01:30:27;;;;;;;1.10;0.90;;;2.80;98.00;;;;;;5093643;28;20818;-68
2022/04/09 01:32:54;;;;;;;1.10;0.90;;;2.80;98.00;;;;;;5093859;28;20495;-68
2022/04/09 01:35:21;;;;;;;1.10;0.93;;;2.90;98.00;;;;;;5092442;28;20501;-67
2022/04/09 01:37:48;;;;;;;1.10;1.00;;;2.90;98.00;;;;;;5093855;28;20548;-68
2022/04/09 01:40:16;;;;;;;1.10;1.00;;;3.00;98.00;;;;;;5093713;28;20482;-68
2022/04/09 01:42:43;;;;;;;1.10;0.90;;;3.10;98.00;;;;;;5093751;28;20490;-68
2022/04/09 01:45:11;;;;;;;1.10;1.00;;;3.10;98.00;;;;;;5093598;28;20495;-68
2022/04/09 01:47:41;;;;;;;1.10;1.00;;;3.00;98.00;;;;;;5093621;28;20930;-68
2022/04/09 01:50:09;;;;;;;1.10;1.00;;;2.80;98.00;;;;;;5093528;28;20456;-68
2022/04/09 01:52:36;;;;;;;1.10;0.90;;;2.70;98.00;;;;;;5093525;28;20558;-68
2022/04/09 01:55:04;;;;;;;1.10;0.90;;;2.70;98.00;;;;;;5093302;28;20540;-68
2022/04/09 01:57:33;;;;;;;1.10;0.90;;;2.70;98.00;;;;;;5093521;28;20503;-68
2022/04/09 02:00:01;;;;;;;1.10;0.93;;;2.80;98.00;;;;;;5093513;28;20488;-68
2022/04/09 02:02:28;;;;;;;1.30;1.30;;;2.90;98.00;;;;;;5093360;28;20944;-68
2022/04/09 02:04:58;;;;;;;1.50;1.10;;;2.90;98.00;;;;;;5093236;28;20486;-68
2022/04/09 02:07:27;;;;;;;1.10;0.90;;;2.90;98.00;;;;;;5092258;28;20800;-68
2022/04/09 02:09:54;;;;;;;1.10;0.90;;;3.10;98.00;;;;;;5093297;28;20451;-68
2022/04/09 02:12:22;;;;;;;1.10;0.90;;;3.00;98.00;;;;;;5093406;28;20491;-68
2022/04/09 02:14:51;;;;;;;1.10;0.90;;;3.00;98.00;;;;;;5093132;28;20548;-68
2022/04/09 02:17:18;;;;;;;1.10;0.90;;;3.10;98.00;;;;;;5092848;28;20490;-68
2022/04/09 02:19:45;;;;;;;1.10;0.90;;;3.10;98.00;;;;;;5093056;28;20479;-68
2022/04/09 02:22:12;;;;;;;1.10;1.00;;;3.10;98.00;;;;;;5093063;28;20479;-68
2022/04/09 02:24:40;;;;;;;1.10;0.90;;;3.20;98.00;;;;;;5092898;28;20529;-68
2022/04/09 02:27:08;;;;;;;1.50;1.37;;;3.30;98.00;;;;;;5092766;28;20528;-68
2022/04/09 02:29:35;;;;;;;1.10;0.90;;;3.10;98.00;;;;;;5092999;28;20515;-68
2022/04/09 02:32:11;;;;;;;3.93;1.57;;;3.00;98.00;;;;;;5092926;28;20539;-68
2022/04/09 02:34:38;;;;;;;1.10;0.90;;;3.00;98.00;;;;;;5092783;28;20547;-68
2022/04/09 02:37:06;;;;;;;1.10;0.90;;;2.90;98.00;;;;;;5092663;28;20482;-68
2022/04/09 02:39:33;;;;;;;1.10;0.93;;;3.00;98.00;;;;;;5092561;28;20447;-68
2022/04/09 02:42:01;;;;;;;1.10;0.90;;;2.90;98.00;;;;;;5092725;28;20516;-68
2022/04/09 02:44:29;;;;;;;1.47;1.20;;;3.00;98.00;;;;;;5092493;28;20495;-68
2022/04/09 02:46:56;;;;;;;1.10;1.10;;;3.00;98.00;;;;;;5092395;28;20452;-68
2022/04/09 02:49:25;;;;;;;1.10;0.90;;;2.80;98.00;;;;;;5092386;28;20547;-68
2022/04/09 02:51:52;;;;;;;1.10;0.90;;;2.80;98.00;;;;;;5091991;28;20458;-68
2022/04/09 02:54:19;;;;;;;1.10;1.00;;;2.70;98.00;;;;;;5091795;28;20516;-68
2022/04/09 02:56:46;;;;;;;1.10;1.00;;;2.80;98.00;;;;;;5091653;28;20512;-68
2022/04/09 02:59:14;;;;;;;1.10;1.00;;;2.90;98.00;;;;;;5092534;28;20797;-67
2022/04/09 03:01:43;;;;;;;1.10;0.90;;;3.00;98.00;;;;;;5092386;28;21152;-68
2022/04/09 03:06:56;;;;;;;1.10;1.00;;;3.00;98.00;;;;;;5074528;28;20967;-68
2022/04/09 03:09:23;;;;;;;1.10;1.10;;;3.00;98.00;;;;;;5092168;28;20509;-68
2022/04/09 03:11:50;;;;;;;1.10;0.90;;;2.90;98.00;;;;;;5092418;28;20543;-68
2022/04/09 03:14:17;;;;;;;1.10;0.90;;;2.80;98.00;;;;;;5091822;28;20585;-68
2022/04/09 03:16:43;;;;;;;1.10;1.00;;;2.70;98.00;;;;;;5091843;28;20487;-68
2022/04/09 03:19:10;;;;;;;1.10;0.90;;;2.70;98.00;;;;;;5092167;28;20504;-68
2022/04/09 03:21:37;;;;;;;1.10;0.90;;;2.80;98.00;;;;;;5091855;28;20487;-68
2022/04/09 03:24:06;;;;;;;1.10;1.00;;;2.90;98.00;;;;;;5091740;28;20463;-68
2022/04/09 03:26:33;;;;;;;1.10;1.00;;;2.90;98.00;;;;;;5091823;28;20526;-68
2022/04/09 03:29:00;;;;;;;2.27;1.30;;;3.10;98.00;;;;;;5091808;28;20537;-68
2022/04/09 03:31:27;;;;;;;1.27;1.23;;;3.10;98.00;;;;;;5091792;28;20538;-68
2022/04/09 03:33:54;;;;;;;1.20;1.00;;;3.20;98.00;;;;;;5090429;28;20504;-68
2022/04/09 03:36:22;;;;;;;1.20;1.10;;;3.30;98.00;;;;;;5091726;28;20491;-68
2022/04/09 03:38:49;;;;;;;1.10;1.00;;;3.40;98.00;;;;;;5091400;28;20451;-68
2022/04/09 03:41:18;;;;;;;1.10;1.00;;;3.40;98.00;;;;;;5091675;28;20452;-68
2022/04/09 03:43:45;;;;;;;1.30;1.23;;;3.40;98.00;;;;;;5091880;28;20539;-68
2022/04/09 03:46:11;;;;;;;1.10;1.00;;;3.40;98.00;;;;;;5091635;28;20809;-68
2022/04/09 03:48:39;;;;;;;1.10;0.90;;;3.40;98.00;;;;;;5091793;28;20463;-68
2022/04/09 03:51:05;;;;;;;1.10;0.90;;;3.30;98.00;;;;;;5091631;28;20475;-68
2022/04/09 03:53:32;;;;;;;1.10;1.00;;;3.20;98.00;;;;;;5091960;28;20499;-68
2022/04/09 03:55:59;;;;;;;1.10;1.00;;;3.20;98.00;;;;;;5091637;28;20635;-68
2022/04/09 03:58:28;;;;;;;1.10;1.00;;;3.30;98.00;;;;;;5091813;28;20491;-68
2022/04/09 04:00:55;;;;;;;1.10;0.90;;;3.40;98.00;;;;;;5090214;28;20474;-68
2022/04/09 04:03:26;;;;;;;1.10;1.00;;;3.40;98.00;;;;;;5091667;28;21012;-68
2022/04/09 04:05:52;;;;;;;1.10;1.00;;;3.50;98.00;;;;;;5091420;28;20452;-68
2022/04/09 04:08:19;;;;;;;1.30;1.20;;;3.60;98.00;;;;;;5091344;28;20490;-68
2022/04/09 04:10:46;;;;;;;1.27;1.20;;;3.50;98.00;;;;;;5091261;28;21260;-68
2022/04/09 04:13:13;;;;;;;1.10;1.00;;;3.40;98.00;;;;;;5091548;28;20506;-68
2022/04/09 04:15:42;;;;;;;1.80;1.20;;;3.40;98.00;;;;;;5091090;28;20871;-68
2022/04/09 04:18:11;;;;;;;1.10;1.00;;;3.40;98.00;;;;;;5091275;28;20516;-68
2022/04/09 04:20:38;;;;;;;1.10;1.00;;;3.20;98.00;;;;;;5091307;28;20569;-68
2022/04/09 04:23:05;;;;;;;1.30;1.10;;;3.20;98.00;;;;;;5091348;28;20945;-68
2022/04/09 04:25:35;;;;;;;1.10;1.10;;;3.40;98.00;;;;;;5091488;28;20798;-68
2022/04/09 04:28:02;;;;;;;1.70;1.17;;;3.40;98.00;;;;;;5091292;28;20538;-68
2022/04/09 04:30:29;;;;;;;1.20;1.00;;;3.60;98.00;;;;;;5091391;28;20491;-68
2022/04/09 04:32:57;;;;;;;1.10;1.10;;;3.60;98.00;;;;;;5090662;28;20536;-68
2022/04/09 04:35:24;;;;;;;1.93;1.43;;;3.60;98.00;;;;;;5091354;28;20515;-68
2022/04/09 04:37:53;;;;;;;1.20;1.10;;;3.60;98.00;;;;;;5091304;28;20454;-68
2022/04/09 04:40:20;;;;;;;1.10;1.00;;;3.60;98.00;;;;;;5091376;28;20530;-68
2022/04/09 04:42:49;;;;;;;1.10;1.00;;;3.70;98.00;;;;;;5091407;28;20549;-68
2022/04/09 04:45:16;;;;;;;1.10;1.00;;;3.70;98.00;;;;;;5091492;28;20779;-68
2022/04/09 04:47:45;;;;;;;1.10;0.90;;;3.60;98.00;;;;;;5091305;28;20513;-68
2022/04/09 04:50:15;;;;;;;1.30;1.30;;;3.60;98.00;;;;;;5073200;28;20487;-68
2022/04/09 04:52:42;;;;;;;1.10;0.97;;;3.50;98.00;;;;;;5093816;28;20490;-68
2022/04/09 04:55:10;;;;;;;1.10;1.00;;;3.50;98.00;;;;;;5094469;28;20519;-68
2022/04/09 04:57:44;;;;;;;1.27;1.23;;;3.70;98.00;;;;;;5094571;28;20461;-68
2022/04/09 05:00:12;;;;;;;1.40;1.30;;;3.70;98.00;;;;;;5093264;28;20463;-68
2022/04/09 05:02:40;;;;;;;1.10;1.00;;;3.70;98.00;;;;;;5094396;28;20513;-68
2022/04/09 05:05:08;;;;;;;1.40;1.33;;;3.60;98.00;;;;;;5094036;28;20455;-68
2022/04/09 05:07:44;;;;;;;1.10;1.10;;;3.50;98.00;;;;;;5094443;28;20492;-68
2022/04/09 05:10:13;;;;;;;1.10;1.07;;;3.60;98.00;;;;;;5094471;28;20460;-69
2022/04/09 05:12:40;;;;;;;1.10;1.00;;;3.60;98.00;;;;;;5094600;28;20452;-68
2022/04/09 05:15:09;;;;;;;1.10;1.00;;;3.60;98.00;;;;;;5094093;28;20510;-68
2022/04/09 05:17:37;;;;;;;1.30;1.27;;;3.60;98.00;;;;;;5094162;28;20554;-68
2022/04/09 05:20:07;;;;;;;1.33;1.27;;;3.60;98.00;;;;;;5094347;28;20505;-68
2022/04/09 05:22:36;;;;;;;1.77;1.37;;;3.70;98.00;;;;;;5094373;28;20483;-68
2022/04/09 05:25:05;;;;;;;1.20;1.13;;;3.60;98.00;;;;;;5094223;28;20452;-68
2022/04/09 05:27:32;;;;;;;1.10;1.10;;;3.60;98.00;;;;;;5094294;28;20561;-68
2022/04/09 05:29:59;;;;;;;1.10;1.00;;;3.70;98.00;;;;;;5094055;28;20491;-68
2022/04/09 05:32:26;;;;;;;1.10;1.10;;;3.70;98.00;;;;;;5094035;28;20509;-68
2022/04/09 05:34:53;;;;;;;1.17;1.10;;;3.80;98.00;;;;;;5093801;28;20567;-69
2022/04/09 05:37:20;;;;;;;2.30;1.47;;;4.00;98.00;;;;;;5092747;28;20868;-68
2022/04/09 05:39:48;;;;;;;1.13;1.13;;;4.00;98.00;;;;;;5093850;28;20810;-69
2022/04/09 05:42:16;;;;;;;1.10;1.00;;;4.10;98.00;;;;;;5093594;28;20451;-68
2022/04/09 05:44:43;;;;;;;1.20;1.10;;;4.20;98.00;;;;;;5093662;28;20487;-69
2022/04/09 05:47:10;;;;;;;1.50;1.20;;;4.20;98.00;;;;;;5093517;28;20490;-68
2022/04/09 05:49:37;;;;;;;1.10;0.90;;;4.30;98.00;;;;;;5093608;28;20922;-68
2022/04/09 05:52:05;;;;;;;1.20;1.20;;;4.40;98.00;;;;;;5092118;28;20954;-68
2022/04/09 05:54:32;;;;;;;1.60;1.43;;;4.30;98.00;;;;;;5093333;28;20533;-68
2022/04/09 05:56:59;;;;;;;1.60;1.50;;;4.10;98.00;;;;;;5091914;28;20574;-68
2022/04/09 05:59:28;;;;;;;1.10;1.00;;;4.00;98.00;;;;;;5093128;28;20466;-68
2022/04/09 06:01:55;;;;;;;1.20;1.03;;;3.90;98.00;;;;;;5092758;28;20489;-68
2022/04/09 06:04:22;;;;;;;1.57;1.40;;;3.90;98.00;;;;;;5093339;28;20448;-69
2022/04/09 06:06:49;;;;;;;1.20;1.00;;;4.00;98.00;;;;;;5093180;28;20930;-68
2022/04/09 06:09:17;;;;;;;1.70;1.60;;;4.20;98.00;;;;;;5093475;28;20452;-68
2022/04/09 06:11:44;;;;;;;1.80;1.40;;;4.20;98.00;;;;;;5093461;28;20917;-68
2022/04/09 06:14:11;;;;;;;1.40;1.30;;;4.20;98.00;;;;;;5093357;28;20485;-68
2022/04/09 06:16:41;;;;;;;1.93;1.87;;;4.20;98.00;;;;;;5092977;28;20519;-68
2022/04/09 06:19:08;;;;;;;2.43;1.57;;;4.20;98.00;;;;;;5093248;28;20526;-68
2022/04/09 06:21:35;;;;;;;1.57;1.53;;;4.20;98.00;;;;;;5091961;28;20452;-68
2022/04/09 06:24:03;;;;;;;1.10;0.90;;;4.30;98.00;;;;;;5093129;28;20965;-68
2022/04/09 06:26:30;;;;;;;1.20;1.07;;;4.40;98.00;;;;;;5093185;28;20453;-68
2022/04/09 06:28:58;;;;;;;1.50;1.13;;;4.60;98.00;;;;;;5093255;28;20498;-68
2022/04/09 06:31:25;;;;;;;1.20;1.10;;;4.70;98.00;;;;;;5093061;28;20513;-68
2022/04/09 06:33:56;;;;;;;1.20;1.10;;;4.80;98.00;;;;;;5092550;28;20494;-68
2022/04/09 06:36:23;;;;;;;1.20;1.03;;;5.00;98.00;;;;;;5092524;28;20511;-68
2022/04/09 06:38:53;;;;;;;1.20;1.13;;;5.00;98.00;;;;;;5092614;28;20499;-68
2022/04/09 06:41:20;;;;;;;1.43;1.37;;;4.90;98.00;;;;;;5092904;28;20534;-68
2022/04/09 06:43:47;;;;;;;1.20;1.00;;;4.70;98.00;;;;;;5092494;28;20461;-68
2022/04/09 06:46:14;;;;;;;1.30;1.10;;;4.70;98.00;;;;;;5092182;28;20882;-68
2022/04/09 06:48:41;;;;;;;2.10;1.73;;;4.70;98.00;;;;;;5089172;28;20465;-69
2022/04/09 06:51:09;;;;;;;1.30;1.23;;;4.60;98.00;;;;;;5087025;28;20554;-68
2022/04/09 06:53:38;;;;;;;1.40;1.20;;;4.70;98.00;;;;;;5089640;28;20488;-69
2022/04/09 06:56:06;;;;;;;1.77;1.73;;;4.80;98.00;;;;;;5089179;28;20541;-69
2022/04/09 06:58:34;;;;;;;1.20;1.00;;;4.70;98.00;;;;;;5089800;28;20452;-69
2022/04/09 07:01:01;;;;;;;1.30;1.20;;;4.60;98.00;;;;;;5089407;28;20525;-69
2022/04/09 07:03:29;;;;;;;1.20;1.00;;;4.50;98.00;;;;;;5089187;28;21013;-68
2022/04/09 07:05:56;;;;;;;1.60;1.50;;;4.60;98.00;;;;;;5089374;28;21038;-68
2022/04/09 07:08:25;;;;;;;1.20;1.00;;;4.50;98.00;;;;;;5089617;28;20448;-69
2022/04/09 07:10:52;;;;;;;1.20;1.00;;;4.40;98.00;;;;;;5089487;28;20942;-69
2022/04/09 07:13:19;;;;;;;2.10;1.77;;;4.50;98.00;;;;;;5089407;28;20464;-69
2022/04/09 07:15:46;;;;;;;1.20;1.10;;;4.60;98.00;;;;;;5087440;28;20934;-68
2022/04/09 07:18:12;;;;;;;1.20;1.00;;;4.70;98.00;;;;;;5089530;28;21326;-68
2022/04/09 07:20:40;;;;;;;1.20;1.10;;;4.70;98.00;;;;;;5089270;28;21264;-68
2022/04/09 07:23:08;;;;;;;1.23;1.10;;;4.80;98.00;;;;;;5089914;28;20452;-69
2022/04/09 07:25:36;;;;;;;1.70;1.43;;;4.80;98.00;;;;;;5089135;28;20494;-69
2022/04/09 07:28:04;;;;;;;1.50;1.20;;;4.70;98.00;;;;;;5089180;28;20486;-69
2022/04/09 07:30:31;;;;;;;1.20;1.00;;;4.60;98.00;;;;;;5089338;28;20588;-69
2022/04/09 07:32:58;;;;;;;1.20;1.10;;;4.70;98.00;;;;;;5088938;28;20470;-69
2022/04/09 07:35:26;;;;;;;1.30;1.00;;;4.80;98.00;;;;;;5089044;28;20550;-68
2022/04/09 07:37:55;;;;;;;1.20;1.00;;;5.00;98.00;;;;;;5088967;28;20541;-69
2022/04/09 07:40:25;;;;;;;1.30;1.20;;;5.20;98.00;;;;;;5089117;28;20458;-69
2022/04/09 07:42:53;;;;;;;1.30;1.20;;;5.30;98.00;;;;;;5089135;28;20456;-69
2022/04/09 07:45:22;;;;;;;1.20;0.90;;;5.50;98.00;;;;;;5088986;28;20921;-69
2022/04/09 07:47:53;;;;;;;1.60;1.30;;;5.50;98.00;;;;;;5088473;28;20517;-71
2022/04/09 07:50:20;;;;;;;1.60;1.17;;;5.50;98.00;;;;;;5085202;28;20551;-69
2022/04/09 07:52:47;;;;;;;1.40;1.40;;;5.40;98.00;;;;;;5088796;28;20461;-69
2022/04/09 07:55:16;;;;;;;1.20;1.00;;;5.40;98.00;;;;;;5088908;28;20572;-68
2022/04/09 07:57:44;;;;;;;2.20;2.00;;;5.50;98.00;;;;;;5087131;28;20580;-69
2022/04/09 08:00:13;;;;;;;1.87;1.63;;;5.60;98.00;;;;;;5088192;28;20495;-69
2022/04/09 08:02:40;;;;;;;1.37;1.33;;;5.60;98.00;;;;;;5088264;28;21044;-70
2022/04/09 08:05:10;;;;;;;1.87;1.10;;;5.60;98.00;;;;;;5088835;28;20520;-72
2022/04/09 08:07:38;;;;;;;1.20;1.00;;;5.70;98.00;;;;;;5088874;28;20457;-70
2022/04/09 08:10:05;;;;;;;1.30;1.10;;;5.70;98.00;;;;;;5089051;28;20455;-70
2022/04/09 08:12:33;;;;;;;1.60;1.20;;;5.60;98.00;;;;;;5088735;28;20459;-69
2022/04/09 08:15:00;;;;;;;1.73;1.20;;;5.60;98.00;;;;;;5088777;28;20480;-69
2022/04/09 08:17:32;;;;;;;1.20;1.07;;;5.70;98.00;;;;;;5088581;28;21349;-68
2022/04/09 08:20:00;;;;;;;1.20;1.00;;;5.80;98.00;;;;;;5087646;28;20581;-70
2022/04/09 08:22:28;;;;;;;1.80;1.77;;;6.00;98.00;;;;;;5088808;28;20521;-68
2022/04/09 08:24:56;;;;;;;1.20;1.00;;;5.90;98.00;;;;;;5088528;28;20467;-69
2022/04/09 08:27:23;;;;;;;1.50;1.40;;;5.90;98.00;;;;;;5092447;28;20461;-69
2022/04/09 08:29:50;;;;;;;1.27;1.07;;;5.90;98.00;;;;;;5092468;28;20445;-68
2022/04/09 08:32:18;;;;;;;1.20;1.00;;;5.90;98.00;;;;;;5092174;28;20540;-68
2022/04/09 08:34:46;;;;;;;1.30;1.00;;;6.10;98.00;;;;;;5092304;28;20462;-68
2022/04/09 08:37:13;;;;;;;1.20;1.00;;;6.20;98.00;;;;;;5091463;28;20502;-68
2022/04/09 08:39:40;;;;;;;1.20;1.13;;;6.10;98.00;;;;;;5092127;28;20965;-69
2022/04/09 08:42:07;;;;;;;1.20;1.20;;;6.10;98.00;;;;;;5092148;28;20514;-69
2022/04/09 08:44:35;;;;;;;1.63;1.10;;;6.10;98.00;;;;;;5092041;28;20510;-69
2022/04/09 08:47:02;;;;;;;1.20;1.10;;;6.00;98.00;;;;;;5091794;28;20522;-69
2022/04/09 08:49:34;;;;;;;1.63;1.20;;;6.10;98.00;;;;;;5089013;28;20493;-68
2022/04/09 08:52:03;;;;;;;1.20;1.10;;;6.20;98.00;;;;;;5090545;28;20461;-68
2022/04/09 08:54:30;;;;;;;2.50;1.67;;;6.30;98.00;;;;;;5092292;28;20488;-68
2022/04/09 08:56:58;;;;;;;1.60;1.20;;;6.30;98.00;;;;;;5092109;28;20584;-68
2022/04/09 08:59:26;;;;;;;1.20;1.10;;;6.40;98.00;;;;;;5090584;28;20495;-68
2022/04/09 09:01:53;;;;;;;1.90;1.40;;;6.50;98.00;;;;;;5091652;28;20495;-69
2022/04/09 09:04:20;;;;;;;1.80;1.10;;;6.50;98.00;;;;;;5092294;28;20511;-68
2022/04/09 09:06:48;;;;;;;5.40;2.90;;;6.60;98.00;;;;;;5092006;28;20452;-69
2022/04/09 09:09:29;;;;;;;1.30;1.27;;;6.70;98.00;;;;;;5091886;28;20457;-70
2022/04/09 09:11:59;;;;;;;1.20;1.00;;;6.70;98.00;;;;;;5091724;28;20460;-66
2022/04/09 09:14:29;;;;;;;1.20;1.00;;;6.70;98.00;;;;;;5091708;28;20457;-68
2022/04/09 09:16:58;;;;;;;1.80;1.23;;;6.70;98.00;;;;;;5089900;28;21160;-69
2022/04/09 09:19:40;;;;;;;2.73;1.33;;;6.90;98.00;;;;;;5091779;28;20891;-67
2022/04/09 09:22:08;;;;;;;2.07;1.50;;;7.00;98.00;;;;;;5091296;28;20478;-67
2022/04/09 09:24:38;;;;;;;1.40;1.30;;;6.90;98.00;;;;;;5091365;28;20452;-67
2022/04/09 09:27:06;;;;;;;1.20;0.90;;;7.00;98.00;;;;;;5091433;28;20866;-66
2022/04/09 09:29:35;;;;;;;1.20;1.17;;;7.10;98.00;;;;;;5091387;28;20553;-67
2022/04/09 09:32:03;;;;;;;1.20;1.00;;;6.90;98.00;;;;;;5091369;28;20460;-67
2022/04/09 09:34:32;;;;;;;1.17;0.90;;;7.20;98.00;;;;;;5091752;28;20453;-67
2022/04/09 09:36:59;;;;;;;1.20;1.00;;;7.30;98.00;;;;;;5090186;28;21024;-66
2022/04/09 09:39:27;;;;;;;1.47;1.43;;;7.30;98.00;;;;;;5091455;28;20545;-66
2022/04/09 09:41:57;;;;;;;1.20;1.10;;;7.10;98.00;;;;;;5091264;28;20486;-66
2022/04/09 09:44:27;;;;;;;1.43;1.20;;;7.00;98.00;;;;;;5091201;28;20607;-67
2022/04/09 09:46:55;;;;;;;2.60;1.40;;;7.00;98.00;;;;;;5091095;28;20456;-67
2022/04/09 09:49:24;;;;;;;1.20;1.03;;;7.00;98.00;;;;;;5087837;28;20452;-67
2022/04/09 09:52:05;;;;;;;1.20;1.10;;;7.10;98.00;;;;;;5091107;28;20463;-67
2022/04/09 09:54:32;;;;;;;1.20;1.20;;;7.10;98.00;;;;;;5091294;28;20461;-67
2022/04/09 09:57:01;;;;;;;1.30;1.20;;;7.20;98.00;;;;;;5091075;28;20522;-67
2022/04/09 09:59:30;;;;;;;1.47;1.40;;;7.30;98.00;;;;;;5091272;28;20544;-66
2022/04/09 10:01:59;;;;;;;1.20;1.20;;;7.40;98.00;;;;;;5091067;28;20518;-66
2022/04/09 10:04:26;;;;;;;2.47;1.40;;;7.50;98.00;;;;;;5090723;28;20460;-66
2022/04/09 10:06:53;;;;;;;1.83;1.73;;;7.60;98.00;;;;;;5090814;28;20505;-66
2022/04/09 10:09:23;;;;;;;1.20;1.00;;;7.60;98.00;;;;;;5090954;28;20881;-67
2022/04/09 10:11:52;;;;;;;1.20;1.00;;;7.60;98.00;;;;;;5089368;28;21132;-66
2022/04/09 10:14:22;;;;;;;9.03;1.90;;;7.60;98.00;;;;;;5090813;28;20464;-67
2022/04/09 10:16:51;;;;;;;1.43;1.20;;;7.60;98.00;;;;;;5091249;28;20534;-67
2022/04/09 10:19:19;;;;;;;1.20;1.10;;;7.50;98.00;;;;;;5090720;28;21153;-67
2022/04/09 10:21:50;;;;;;;1.77;1.13;;;7.50;98.00;;;;;;5091108;28;20481;-67
2022/04/09 10:24:20;;;;;;;1.40;1.30;;;7.40;98.00;;;;;;5090648;28;20446;-68
2022/04/09 10:26:47;;;;;;;1.20;1.00;;;7.40;98.00;;;;;;5089158;28;20471;-67
2022/04/09 10:29:14;;;;;;;1.53;1.10;;;7.30;98.00;;;;;;5090578;28;20483;-66
2022/04/09 10:31:43;;;;;;;1.60;1.50;;;7.30;98.00;;;;;;5090396;28;20523;-66
2022/04/09 10:34:11;;;;;;;1.20;1.10;;;7.50;98.00;;;;;;5090458;28;20457;-66
2022/04/09 10:37:03;;;;;;;1.30;1.10;;;8.10;98.00;;;;;;5088900;28;20491;-66
2022/04/09 10:39:38;;;;;;;1.33;1.27;;;8.30;98.00;;;;;;5090185;28;20932;-67
2022/04/09 10:42:06;;;;;;;1.20;1.00;;;8.20;98.00;;;;;;5090402;28;20524;-66
2022/04/09 10:44:52;;;;;;;1.50;1.40;;;8.10;98.00;;;;;;5090010;28;20457;-67
2022/04/09 10:47:20;;;;;;;1.20;1.00;;;8.00;98.00;;;;;;5090064;28;20516;-67
2022/04/09 10:50:11;;;;;;;1.20;0.90;;;7.70;98.00;;;;;;5087107;28;20486;-66
2022/04/09 10:52:40;;;;;;;11.13;1.60;;;7.70;98.00;;;;;;5090296;28;20472;-67
2022/04/09 10:55:24;;;;;;;1.30;1.20;;;7.60;98.00;;;;;;5089775;28;20969;-67
2022/04/09 10:57:59;;;;;;;1.20;1.00;;;7.60;98.00;;;;;;5081712;28;20490;-67
2022/04/09 11:00:31;;;;;;;1.20;1.00;;;7.90;98.00;;;;;;5089690;28;22229;-67
2022/04/09 11:03:16;;;;;;;3.00;1.20;;;8.20;98.00;;;;;;5089799;28;20495;-66
2022/04/09 11:05:44;;;;;;;1.20;1.00;;;8.30;98.00;;;;;;5089502;28;20485;-66
2022/04/09 11:08:14;;;;;;;1.20;1.10;;;8.60;98.00;;;;;;5089547;28;20457;-67
2022/04/09 11:10:44;;;;;;;1.20;1.00;;;8.60;98.00;;;;;;5089587;28;20794;-67
2022/04/09 11:13:12;;;;;;;1.20;0.90;;;8.60;98.00;;;;;;5089891;28;20572;-66
2022/04/09 11:15:43;;;;;;;1.20;1.00;;;8.70;98.00;;;;;;5089603;28;20452;-67
2022/04/09 11:18:12;;;;;;;1.20;1.00;;;8.70;98.00;;;;;;5089306;28;20516;-66
2022/04/09 11:20:41;;;;;;;1.97;1.20;;;8.80;98.00;;;;;;5088001;28;20491;-66
2022/04/09 11:23:10;;;;;;;1.50;1.17;;;9.20;98.00;;;;;;5088099;28;20455;-66
2022/04/09 11:25:40;;;;;;;1.20;1.10;;;9.40;96.60;;;;;;5089146;28;20520;-66
2022/04/09 11:28:10;;;;;;;1.20;1.00;;;9.60;95.40;;;;;;5089333;28;20464;-67
2022/04/09 11:30:38;;;;;;;1.20;1.03;;;9.90;97.50;;;;;;5089667;28;20460;-66
2022/04/09 11:33:05;;;;;;;1.30;1.20;;;9.90;96.00;;;;;;5089207;28;20867;-66
2022/04/09 11:35:36;;;;;;;1.20;1.00;;;9.60;96.00;;;;;;5089439;28;20456;-66
2022/04/09 11:38:11;;;;;;;1.50;1.20;;;9.60;96.70;;;;;;5089085;28;20652;-66
2022/04/09 11:40:46;;;;;;;1.20;1.00;;;9.50;98.00;;;;;;5089381;28;20460;-69
2022/04/09 11:43:13;;;;;;;1.20;1.00;;;9.30;98.00;;;;;;5089455;28;20462;-68
2022/04/09 11:45:40;;;;;;;4.30;3.63;;;9.00;98.00;;;;;;5089074;28;20483;-69
2022/04/09 11:48:14;;;;;;;2.73;1.30;;;8.90;97.40;;;;;;5089279;28;20482;-69
2022/04/09 11:50:42;;;;;;;1.20;1.00;;;8.80;97.20;;;;;;5085462;28;20478;-68
2022/04/09 11:53:16;;;;;;;1.20;1.07;;;8.90;96.90;;;;;;5088919;28;20463;-68
2022/04/09 11:55:45;;;;;;;1.30;1.00;;;8.90;97.30;;;;;;5089002;28;20447;-68
2022/04/09 11:58:14;;;;;;;1.20;1.00;;;9.30;96.50;;;;;;5089304;28;20568;-68
2022/04/09 12:00:42;;;;;;;1.40;1.13;;;10.10;95.90;;;;;;5090316;28;20974;-68
2022/04/09 12:03:10;;;;;;;1.20;1.00;;;10.70;94.20;;;;;;5093358;28;20470;-68
2022/04/09 12:05:38;;;;;;;1.30;1.20;;;10.70;92.30;;;;;;5092943;28;20464;-69
2022/04/09 12:08:11;;;;;;;1.20;0.90;;;10.40;91.80;;;;;;5093198;28;20462;-67
2022/04/09 12:10:52;;;;;;;1.20;1.03;;;10.20;92.50;;;;;;5092643;28;20548;-67
2022/04/09 12:13:26;;;;;;;1.30;1.13;;;10.50;92.80;;;;;;5093116;28;20492;-66
2022/04/09 12:15:53;;;;;;;1.90;1.30;;;10.90;93.40;;;;;;5093060;28;20469;-67
2022/04/09 12:18:28;;;;;;;2.27;1.23;;;11.40;90.90;;;;;;5092587;28;21081;-66
2022/04/09 12:20:55;;;;;;;12.77;2.67;;;11.90;90.40;;;;;;5092816;28;20450;-66
2022/04/09 12:23:29;;;;;;;1.20;1.00;;;12.40;91.20;;;;;;5091536;28;20949;-67
2022/04/09 12:26:00;;;;;;;1.20;1.00;;;12.60;87.80;;;;;;5092614;28;21122;-66
2022/04/09 12:28:31;;;;;;;1.73;1.20;;;12.90;87.20;;;;;;5093006;28;20999;-67
2022/04/09 12:31:00;;;;;;;1.67;1.40;;;12.20;85.90;;;;;;5092681;28;20490;-67
2022/04/09 12:33:28;;;;;;;1.97;1.13;;;11.30;86.00;;;;;;5092972;28;20496;-67
2022/04/09 12:36:07;;;;;;;1.23;1.03;;;11.40;87.40;;;;;;5092582;28;20465;-67
2022/04/09 12:38:37;;;;;;;1.57;1.20;;;11.20;86.90;;;;;;5092407;28;20495;-67
2022/04/09 12:41:07;;;;;;;1.80;1.10;;;10.90;86.80;;;;;;5092601;28;20878;-66
2022/04/09 12:43:36;;;;;;;1.40;1.10;;;10.90;86.80;;;;;;5092388;28;20466;-66
2022/04/09 12:46:04;;;;;;;1.30;1.27;;;11.20;88.00;;;;;;5092148;28;20491;-67
2022/04/09 12:48:38;;;;;;;1.20;1.07;;;11.70;88.50;;;;;;5092538;28;20473;-67
2022/04/09 12:51:05;;;;;;;3.43;1.57;;;12.10;89.00;;;;;;5089398;28;20457;-68
2022/04/09 12:53:32;;;;;;;1.30;1.10;;;12.40;87.60;;;;;;5091974;28;20548;-68
2022/04/09 12:56:04;;;;;;;1.70;1.10;;;12.60;86.20;;;;;;5092106;28;20503;-68
2022/04/09 12:58:35;;;;;;;1.20;1.00;;;12.50;85.10;;;;;;5092081;28;20570;-68
2022/04/09 13:01:03;;;;;;;1.60;1.50;;;12.90;83.50;;;;;;5091888;28;20547;-68
2022/04/09 13:03:32;;;;;;;2.03;1.33;;;12.80;83.70;;;;;;5091950;28;20419;-67
2022/04/09 13:05:59;;;;;;;1.95;1.55;;;12.40;83.80;;;;;;5090498;28;20814;-68
2022/04/09 13:08:26;;;;;;;1.30;1.20;;;12.70;85.60;;;;;;5091904;28;20631;-67